Time;durP1;ratioP1;P1;durP2;ratioP2;P2;SDS_P1;SDS_P2;PMS_P1;PMS_P2;Temp;Humidity;BMP_temperature;BMP_pressure;BME280_temperature;BME280_humidity;BME280_pressure;Samples;Min_cycle;Max_cycle;Signal;HPM_P1;HPM_P2
2021/12/02 00:00:47;;;;;;;4.30;3.38;;;;;;;;;;5073476;28;20028;-40
2021/12/02 00:03:12;;;;;;;5.05;3.13;;;;;;;;;;5073523;28;20078;-40
2021/12/02 00:05:38;;;;;;;5.75;3.63;;;;;;;;;;5073823;28;20166;-41
2021/12/02 00:08:05;;;;;;;9.27;4.28;;;;;;;;;;5073330;28;20072;-40
2021/12/02 00:10:31;;;;;;;4.43;3.00;;;;;;;;;;5073206;28;20028;-40
2021/12/02 00:12:58;;;;;;;5.10;2.97;;;;;;;;;;5073557;28;20032;-41
2021/12/02 00:15:32;;;;;;;5.72;3.22;;;;;;;;;;5073447;28;20020;-41
2021/12/02 00:18:29;;;;;;;6.25;3.15;;;;;;;;;;5073473;28;20453;-41
2021/12/02 00:23:33;;;;;;;6.55;3.10;;;;;;;;;;5073429;28;20070;-40
2021/12/02 00:26:00;;;;;;;4.32;2.72;;;;;;;;;;5073264;28;20025;-41
2021/12/02 00:28:28;;;;;;;6.35;3.15;;;;;;;;;;5073267;28;20032;-39
2021/12/02 00:30:58;;;;;;;5.88;3.17;;;;;;;;;;5072856;28;20469;-41
2021/12/02 00:33:29;;;;;;;4.32;2.72;;;;;;;;;;5073427;28;20362;-40
2021/12/02 00:35:56;;;;;;;5.55;3.25;;;;;;;;;;5072894;28;20500;-40
2021/12/02 00:38:23;;;;;;;5.55;3.50;;;;;;;;;;5072772;28;20025;-40
2021/12/02 00:40:50;;;;;;;8.85;3.67;;;;;;;;;;5072855;28;20032;-41
2021/12/02 00:43:16;;;;;;;5.95;3.42;;;;;;;;;;5073090;28;20614;-40
2021/12/02 00:45:43;;;;;;;6.80;3.50;;;;;;;;;;5072546;28;20029;-41
2021/12/02 00:48:09;;;;;;;5.80;3.45;;;;;;;;;;5072900;28;20071;-40
2021/12/02 00:50:40;;;;;;;7.13;3.67;;;;;;;;;;5072665;28;20033;-40
2021/12/02 00:53:07;;;;;;;7.60;3.30;;;;;;;;;;5072692;28;20031;-41
2021/12/02 00:55:38;;;;;;;3.90;2.85;;;;;;;;;;5072582;28;20150;-40
2021/12/02 00:58:04;;;;;;;4.72;3.03;;;;;;;;;;5072772;28;20020;-40
2021/12/02 01:00:30;;;;;;;4.32;2.90;;;;;;;;;;5072858;28;20484;-41
2021/12/02 01:02:58;;;;;;;4.68;2.17;;;;;;;;;;5072761;28;20051;-40
2021/12/02 01:05:25;;;;;;;5.00;3.17;;;;;;;;;;5072779;28;20029;-40
2021/12/02 01:07:50;;;;;;;4.13;2.33;;;;;;;;;;5072363;28;20405;-41
2021/12/02 01:10:16;;;;;;;5.72;3.60;;;;;;;;;;5072653;28;20031;-41
2021/12/02 01:12:41;;;;;;;4.78;2.85;;;;;;;;;;5072399;28;20054;-41
2021/12/02 01:15:07;;;;;;;3.33;2.50;;;;;;;;;;5072483;28;20446;-41
2021/12/02 01:17:33;;;;;;;6.40;3.38;;;;;;;;;;5072621;28;20033;-41
2021/12/02 01:19:58;;;;;;;3.15;2.50;;;;;;;;;;5072589;28;20358;-40
2021/12/02 01:22:24;;;;;;;2.28;1.98;;;;;;;;;;5054373;28;20103;-40
2021/12/02 01:24:51;;;;;;;3.70;2.30;;;;;;;;;;5072261;28;20086;-40
2021/12/02 01:27:20;;;;;;;3.65;2.20;;;;;;;;;;5072561;28;20025;-40
2021/12/02 01:29:48;;;;;;;3.72;2.53;;;;;;;;;;5072367;28;20021;-41
2021/12/02 01:32:15;;;;;;;3.60;2.40;;;;;;;;;;5072175;28;20606;-41
2021/12/02 01:34:45;;;;;;;5.60;2.90;;;;;;;;;;5072471;28;20028;-41
2021/12/02 01:37:11;;;;;;;10.75;2.40;;;;;;;;;;5072102;28;20051;-40
2021/12/02 01:39:37;;;;;;;8.32;2.40;;;;;;;;;;5072147;28;20024;-40
2021/12/02 01:42:03;;;;;;;5.53;2.53;;;;;;;;;;5072024;28;20029;-41
2021/12/02 01:44:29;;;;;;;6.55;2.25;;;;;;;;;;5072263;28;20107;-41
2021/12/02 01:46:58;;;;;;;5.35;2.20;;;;;;;;;;5072252;28;20580;-40
2021/12/02 01:49:32;;;;;;;3.58;1.95;;;;;;;;;;5072188;28;20067;-41
2021/12/02 01:52:00;;;;;;;3.60;2.30;;;;;;;;;;5072029;28;20473;-40
2021/12/02 01:54:27;;;;;;;3.83;2.30;;;;;;;;;;5072208;28;20024;-40
2021/12/02 01:57:04;;;;;;;3.70;2.40;;;;;;;;;;5074534;28;20021;-40
2021/12/02 01:59:34;;;;;;;3.97;2.08;;;;;;;;;;5075944;28;20102;-41
2021/12/02 02:02:03;;;;;;;3.95;2.42;;;;;;;;;;5076119;28;20050;-40
2021/12/02 02:04:29;;;;;;;10.20;2.45;;;;;;;;;;5075774;28;20063;-40
2021/12/02 02:07:09;;;;;;;3.55;2.35;;;;;;;;;;5075781;28;20048;-40
2021/12/02 02:09:34;;;;;;;;;;;;;;;;;;5076365;28;20054;-41
2021/12/02 02:12:03;;;;;;;1.55;1.45;;;;;;;;;;5075636;28;20349;-40
2021/12/02 02:14:29;;;;;;;3.90;2.55;;;;;;;;;;5075874;28;20033;-41
2021/12/02 02:16:56;;;;;;;3.78;2.08;;;;;;;;;;5075774;28;20025;-41
2021/12/02 02:19:23;;;;;;;2.95;2.38;;;;;;;;;;5075739;28;20024;-40
2021/12/02 02:21:48;;;;;;;5.43;2.67;;;;;;;;;;5075661;28;20419;-40
2021/12/02 02:24:17;;;;;;;5.63;2.80;;;;;;;;;;5075389;28;20025;-40
2021/12/02 02:26:43;;;;;;;7.63;3.53;;;;;;;;;;5075657;28;20055;-40
2021/12/02 02:29:12;;;;;;;6.63;2.70;;;;;;;;;;5075263;28;20025;-40
2021/12/02 02:31:41;;;;;;;5.05;2.35;;;;;;;;;;5075255;28;20028;-40
2021/12/02 02:34:07;;;;;;;4.47;2.75;;;;;;;;;;5075202;28;20469;-40
2021/12/02 02:36:38;;;;;;;3.60;2.75;;;;;;;;;;5075208;28;20022;-41
2021/12/02 02:39:04;;;;;;;7.63;2.95;;;;;;;;;;5075082;28;20028;-40
2021/12/02 02:41:36;;;;;;;3.30;2.35;;;;;;;;;;5075215;28;20028;-41
2021/12/02 02:44:02;;;;;;;5.22;3.00;;;;;;;;;;5075095;28;20036;-40
2021/12/02 02:46:38;;;;;;;4.05;2.38;;;;;;;;;;5075355;28;20036;-40
2021/12/02 02:49:07;;;;;;;3.38;2.50;;;;;;;;;;5074924;28;20020;-40
2021/12/02 02:51:33;;;;;;;10.68;2.75;;;;;;;;;;5074912;28;20462;-41
2021/12/02 02:54:05;;;;;;;8.05;3.03;;;;;;;;;;5075089;28;20051;-40
2021/12/02 02:56:33;;;;;;;5.85;3.22;;;;;;;;;;5075169;28;20055;-41
2021/12/02 03:04:36;;;;;;;5.65;2.38;;;;;;;;;;5074954;28;20432;-40
2021/12/02 03:07:11;;;;;;;9.32;3.30;;;;;;;;;;5074607;28;20103;-41
2021/12/02 03:09:50;;;;;;;4.75;2.88;;;;;;;;;;5074774;28;20032;-40
2021/12/02 03:17:11;;;;;;;3.28;2.13;;;;;;;;;;5074462;28;20420;-40
2021/12/02 03:19:41;;;;;;;4.25;2.95;;;;;;;;;;5074635;28;20028;-40
2021/12/02 03:22:07;;;;;;;5.55;3.00;;;;;;;;;;5074708;28;20048;-40
2021/12/02 03:24:33;;;;;;;4.28;2.97;;;;;;;;;;5074263;28;20071;-40
2021/12/02 03:26:58;;;;;;;3.95;2.45;;;;;;;;;;5074462;28;20035;-40
2021/12/02 03:29:24;;;;;;;3.92;2.60;;;;;;;;;;5074413;28;20038;-40
2021/12/02 03:31:49;;;;;;;3.92;2.78;;;;;;;;;;5074434;28;20420;-40
2021/12/02 03:34:15;;;;;;;3.38;2.53;;;;;;;;;;5074432;28;20111;-40
2021/12/02 03:36:41;;;;;;;4.20;2.80;;;;;;;;;;5074329;28;20024;-40
2021/12/02 03:39:09;;;;;;;4.18;3.00;;;;;;;;;;5074251;28;20047;-40
2021/12/02 03:41:35;;;;;;;3.03;2.45;;;;;;;;;;5073979;28;20037;-40
2021/12/02 03:44:01;;;;;;;3.58;2.35;;;;;;;;;;5074205;28;20029;-40
2021/12/02 03:46:26;;;;;;;4.40;2.25;;;;;;;;;;5073786;28;20108;-40
2021/12/02 03:48:54;;;;;;;5.22;3.08;;;;;;;;;;5074140;28;20047;-40
2021/12/02 03:51:20;;;;;;;6.95;3.63;;;;;;;;;;5073720;28;20111;-40
2021/12/02 03:53:46;;;;;;;4.85;3.10;;;;;;;;;;5074054;28;20167;-40
2021/12/02 03:56:12;;;;;;;6.32;3.38;;;;;;;;;;5073721;28;20024;-41
2021/12/02 03:58:41;;;;;;;6.82;3.28;;;;;;;;;;5073834;28;20040;-41
2021/12/02 04:01:08;;;;;;;5.90;3.08;;;;;;;;;;5073887;28;20125;-41
2021/12/02 04:03:34;;;;;;;4.53;2.55;;;;;;;;;;5073826;28;20025;-41
2021/12/02 04:06:00;;;;;;;5.75;3.10;;;;;;;;;;5073779;28;20137;-41
2021/12/02 04:08:31;;;;;;;4.22;3.08;;;;;;;;;;5073362;28;20053;-41
2021/12/02 04:11:18;;;;;;;5.10;3.30;;;;;;;;;;5073572;28;20024;-41
2021/12/02 04:16:31;;;;;;;6.43;3.38;;;;;;;;;;5073566;28;20030;-41
2021/12/02 04:18:56;;;;;;;5.50;3.08;;;;;;;;;;5072770;28;20481;-40
2021/12/02 04:21:22;;;;;;;5.90;3.33;;;;;;;;;;5073077;28;20035;-41
2021/12/02 04:23:48;;;;;;;4.68;2.83;;;;;;;;;;5073150;28;20105;-41
2021/12/02 04:26:13;;;;;;;9.32;3.00;;;;;;;;;;5073039;28;20055;-41
2021/12/02 04:28:39;;;;;;;6.07;3.13;;;;;;;;;;5073367;28;20020;-42
2021/12/02 04:31:04;;;;;;;5.05;2.67;;;;;;;;;;5073175;28;20032;-41
2021/12/02 04:33:30;;;;;;;4.70;3.20;;;;;;;;;;5073180;28;20102;-40
2021/12/02 04:35:57;;;;;;;7.95;3.55;;;;;;;;;;5073120;28;20032;-41
2021/12/02 04:38:22;;;;;;;5.63;3.50;;;;;;;;;;5072817;28;20465;-41
2021/12/02 04:40:48;;;;;;;4.30;3.00;;;;;;;;;;5072993;28;20059;-41
2021/12/02 04:43:13;;;;;;;4.00;3.30;;;;;;;;;;5072668;28;20043;-41
2021/12/02 04:45:39;;;;;;;4.75;3.25;;;;;;;;;;5072623;28;20031;-41
2021/12/02 04:48:06;;;;;;;4.50;2.80;;;;;;;;;;5072730;28;20028;-41
2021/12/02 04:50:31;;;;;;;6.93;3.05;;;;;;;;;;5072597;28;20032;-41
2021/12/02 04:52:57;;;;;;;4.65;2.75;;;;;;;;;;5072922;28;20032;-40
2021/12/02 04:55:22;;;;;;;6.95;3.13;;;;;;;;;;5072511;28;20385;-41
2021/12/02 04:57:48;;;;;;;6.10;3.47;;;;;;;;;;5072553;28;20028;-41
2021/12/02 05:00:15;;;;;;;6.00;3.80;;;;;;;;;;5072513;28;20025;-41
2021/12/02 05:02:41;;;;;;;6.05;3.58;;;;;;;;;;5072511;28;20051;-41
2021/12/02 05:05:08;;;;;;;6.20;3.65;;;;;;;;;;5072468;28;20032;-41
2021/12/02 05:07:34;;;;;;;6.25;3.45;;;;;;;;;;5072410;28;20082;-40
2021/12/02 05:09:59;;;;;;;6.72;3.22;;;;;;;;;;5072482;28;20558;-41
2021/12/02 05:12:25;;;;;;;5.82;3.80;;;;;;;;;;5072736;28;20416;-40
2021/12/02 05:14:50;;;;;;;7.43;3.47;;;;;;;;;;5072675;28;20112;-40
2021/12/02 05:17:16;;;;;;;4.25;3.17;;;;;;;;;;5072551;28;20497;-40
2021/12/02 05:19:42;;;;;;;5.85;3.45;;;;;;;;;;5072323;28;20036;-40
2021/12/02 05:22:08;;;;;;;5.25;3.78;;;;;;;;;;5072298;28;20032;-40
2021/12/02 05:24:34;;;;;;;7.65;3.70;;;;;;;;;;5072250;28;20039;-40
2021/12/02 05:26:59;;;;;;;8.43;4.30;;;;;;;;;;5072252;28;20025;-41
2021/12/02 05:29:25;;;;;;;9.93;4.18;;;;;;;;;;5072454;28;20040;-40
2021/12/02 05:31:51;;;;;;;6.78;4.40;;;;;;;;;;5074882;28;20358;-39
2021/12/02 05:34:17;;;;;;;6.85;4.50;;;;;;;;;;5076637;28;20078;-40
2021/12/02 05:36:42;;;;;;;10.18;3.70;;;;;;;;;;5076328;28;20477;-41
2021/12/02 05:39:08;;;;;;;7.55;4.30;;;;;;;;;;5076542;28;20028;-41
2021/12/02 05:41:33;;;;;;;9.23;4.40;;;;;;;;;;5076468;28;20121;-40
2021/12/02 05:44:00;;;;;;;7.00;4.03;;;;;;;;;;5076103;28;20033;-40
2021/12/02 05:46:26;;;;;;;6.53;3.67;;;;;;;;;;5076180;28;20020;-39
2021/12/02 05:48:51;;;;;;;11.70;5.35;;;;;;;;;;5076453;28;20031;-39
2021/12/02 05:51:17;;;;;;;16.10;9.90;;;;;;;;;;5075981;28;20431;-39
2021/12/02 05:53:42;;;;;;;10.85;6.35;;;;;;;;;;5076293;28;20103;-40
2021/12/02 05:56:08;;;;;;;13.82;6.53;;;;;;;;;;5058102;28;20484;-40
2021/12/02 05:58:33;;;;;;;14.38;7.07;;;;;;;;;;5076222;28;20024;-40
2021/12/02 06:00:58;;;;;;;14.57;8.18;;;;;;;;;;5076199;28;20044;-40
2021/12/02 06:03:24;;;;;;;13.00;6.18;;;;;;;;;;5076030;28;20024;-39
2021/12/02 06:05:49;;;;;;;11.70;5.90;;;;;;;;;;5075942;28;20563;-39
2021/12/02 06:08:15;;;;;;;14.57;7.15;;;;;;;;;;5075582;28;20040;-39
2021/12/02 06:10:41;;;;;;;12.10;6.25;;;;;;;;;;5075453;28;20028;-40
2021/12/02 06:13:07;;;;;;;8.05;4.95;;;;;;;;;;5075748;28;20024;-39
2021/12/02 06:15:32;;;;;;;11.40;5.72;;;;;;;;;;5075795;28;20043;-39
2021/12/02 06:17:58;;;;;;;11.30;5.43;;;;;;;;;;5075854;28;20504;-40
2021/12/02 06:20:24;;;;;;;10.38;4.47;;;;;;;;;;5075356;28;20039;-39
2021/12/02 06:22:49;;;;;;;10.00;5.70;;;;;;;;;;5057513;28;20055;-39
2021/12/02 06:27:42;;;;;;;32.42;16.08;;;;;;;;;;5075389;28;20024;-40
2021/12/02 06:30:08;;;;;;;20.65;12.02;;;;;;;;;;5075365;28;20132;-40
2021/12/02 06:32:33;;;;;;;10.93;5.65;;;;;;;;;;5075152;28;20024;-40
2021/12/02 06:34:59;;;;;;;6.55;4.63;;;;;;;;;;5075525;28;20174;-39
2021/12/02 06:37:25;;;;;;;7.68;4.97;;;;;;;;;;5075391;28;20020;-39
2021/12/02 06:39:53;;;;;;;9.38;4.95;;;;;;;;;;5075377;28;20043;-41
2021/12/02 06:42:19;;;;;;;10.27;5.35;;;;;;;;;;5074687;28;20039;-40
2021/12/02 06:44:44;;;;;;;7.38;4.18;;;;;;;;;;5075340;28;20111;-39
2021/12/02 06:47:10;;;;;;;8.40;4.45;;;;;;;;;;5074917;28;20035;-41
2021/12/02 06:49:39;;;;;;;7.10;4.72;;;;;;;;;;5074823;28;20036;-39
2021/12/02 06:52:10;;;;;;;9.52;5.00;;;;;;;;;;5074717;28;20021;-40
2021/12/02 06:54:36;;;;;;;8.18;5.53;;;;;;;;;;5074742;28;20033;-40
2021/12/02 06:57:01;;;;;;;8.05;4.60;;;;;;;;;;5074909;28;20035;-40
2021/12/02 06:59:27;;;;;;;8.30;4.50;;;;;;;;;;5074354;28;20028;-40
2021/12/02 07:01:52;;;;;;;7.32;4.88;;;;;;;;;;5074847;28;20016;-40
2021/12/02 07:04:18;;;;;;;10.90;4.93;;;;;;;;;;5074939;28;20523;-41
2021/12/02 07:06:44;;;;;;;8.90;5.07;;;;;;;;;;5074902;28;20405;-40
2021/12/02 07:09:10;;;;;;;7.38;4.70;;;;;;;;;;5074389;28;20391;-40
2021/12/02 07:11:35;;;;;;;10.18;4.80;;;;;;;;;;5074538;28;20039;-40
2021/12/02 07:14:07;;;;;;;12.57;5.63;;;;;;;;;;5074808;28;20024;-39
2021/12/02 07:16:33;;;;;;;10.60;5.18;;;;;;;;;;5074410;28;20086;-40
2021/12/02 07:19:07;;;;;;;8.23;5.10;;;;;;;;;;5074684;28;20020;-39
2021/12/02 07:21:36;;;;;;;9.75;5.60;;;;;;;;;;5074554;28;20465;-41
2021/12/02 07:24:02;;;;;;;9.57;5.22;;;;;;;;;;5074557;28;20075;-39
2021/12/02 07:26:28;;;;;;;10.98;5.40;;;;;;;;;;5074530;28;20024;-39
2021/12/02 07:28:53;;;;;;;9.23;5.05;;;;;;;;;;5074154;28;20498;-40
2021/12/02 07:31:20;;;;;;;11.68;5.35;;;;;;;;;;5074211;28;20063;-40
2021/12/02 07:33:48;;;;;;;8.77;5.35;;;;;;;;;;5074359;28;20468;-39
2021/12/02 07:36:15;;;;;;;12.05;6.00;;;;;;;;;;5074314;28;20108;-40
2021/12/02 07:38:41;;;;;;;7.35;4.90;;;;;;;;;;5074218;28;20028;-40
2021/12/02 07:41:07;;;;;;;10.98;5.50;;;;;;;;;;5073839;28;20554;-40
2021/12/02 07:43:34;;;;;;;3.78;2.97;;;;;;;;;;5073811;28;20074;-39
2021/12/02 07:46:01;;;;;;;10.45;5.47;;;;;;;;;;5072907;28;20082;-40
2021/12/02 07:48:27;;;;;;;8.60;5.55;;;;;;;;;;5071903;28;20013;-40
2021/12/02 07:51:00;;;;;;;9.43;5.40;;;;;;;;;;5071536;28;20044;-40
2021/12/02 07:53:27;;;;;;;9.75;5.85;;;;;;;;;;5071396;28;20070;-40
2021/12/02 07:55:55;;;;;;;10.27;5.88;;;;;;;;;;5072878;28;20465;-40
2021/12/02 07:58:22;;;;;;;7.80;5.28;;;;;;;;;;5073666;28;20040;-40
2021/12/02 08:00:49;;;;;;;7.35;4.93;;;;;;;;;;5073644;28;20033;-39
2021/12/02 08:03:15;;;;;;;9.68;5.53;;;;;;;;;;5073511;28;20029;-41
2021/12/02 08:05:41;;;;;;;9.20;4.68;;;;;;;;;;5072852;28;20126;-41
2021/12/02 08:08:07;;;;;;;8.48;5.38;;;;;;;;;;5072528;28;20056;-40
2021/12/02 08:10:32;;;;;;;10.93;5.65;;;;;;;;;;5072783;28;20039;-39
2021/12/02 08:13:00;;;;;;;10.50;6.68;;;;;;;;;;5063763;28;20112;-43
2021/12/02 08:15:27;;;;;;;7.55;5.55;;;;;;;;;;5071938;28;20028;-39
2021/12/02 08:17:55;;;;;;;10.85;5.53;;;;;;;;;;5066718;28;20051;-41
2021/12/02 08:20:22;;;;;;;12.40;7.05;;;;;;;;;;5072007;28;20028;-42
2021/12/02 08:22:47;;;;;;;14.57;6.05;;;;;;;;;;5071755;28;20107;-36
2021/12/02 08:25:14;;;;;;;13.50;7.97;;;;;;;;;;5066419;28;20414;-36
2021/12/02 08:27:40;;;;;;;9.35;5.70;;;;;;;;;;5071577;28;20024;-41
2021/12/02 08:30:08;;;;;;;12.25;7.95;;;;;;;;;;5072165;28;20055;-41
2021/12/02 08:32:36;;;;;;;13.80;8.30;;;;;;;;;;5073275;28;20066;-44
2021/12/02 08:35:02;;;;;;;10.68;6.68;;;;;;;;;;5073096;28;20470;-39
2021/12/02 08:37:30;;;;;;;15.80;10.15;;;;;;;;;;5072739;28;20470;-45
2021/12/02 08:39:59;;;;;;;14.00;8.30;;;;;;;;;;5072897;28;20123;-43
2021/12/02 08:42:25;;;;;;;10.82;6.10;;;;;;;;;;5072802;28;20046;-46
2021/12/02 08:44:53;;;;;;;11.40;7.90;;;;;;;;;;5072753;28;20059;-42
2021/12/02 08:47:21;;;;;;;10.93;7.47;;;;;;;;;;5071860;28;20532;-45
2021/12/02 08:49:47;;;;;;;15.00;8.20;;;;;;;;;;5071314;28;20071;-44
2021/12/02 08:52:12;;;;;;;13.43;7.03;;;;;;;;;;5071341;28;20028;-46
2021/12/02 08:54:39;;;;;;;12.82;7.88;;;;;;;;;;5070972;28;20482;-37
2021/12/02 08:57:04;;;;;;;14.15;7.50;;;;;;;;;;5071277;28;20029;-43
2021/12/02 08:59:30;;;;;;;15.30;9.80;;;;;;;;;;5070839;28;20032;-42
2021/12/02 09:01:56;;;;;;;12.75;7.45;;;;;;;;;;5070920;28;20111;-40
2021/12/02 09:04:21;;;;;;;10.60;7.10;;;;;;;;;;5071008;28;20032;-43
2021/12/02 09:06:46;;;;;;;10.63;6.95;;;;;;;;;;5070703;28;20025;-38
2021/12/02 09:09:12;;;;;;;6.30;3.92;;;;;;;;;;5070705;28;20052;-40
2021/12/02 09:11:37;;;;;;;8.95;6.00;;;;;;;;;;5071003;28;20040;-38
2021/12/02 09:14:05;;;;;;;14.00;6.40;;;;;;;;;;5070912;28;20032;-43
2021/12/02 09:16:32;;;;;;;6.35;4.30;;;;;;;;;;5070885;28;20047;-43
2021/12/02 09:18:57;;;;;;;10.13;5.57;;;;;;;;;;5071046;28;20363;-43
2021/12/02 09:21:24;;;;;;;7.60;4.80;;;;;;;;;;5070843;28;20032;-45
2021/12/02 09:23:50;;;;;;;6.75;4.68;;;;;;;;;;5070622;28;20470;-44
2021/12/02 09:26:15;;;;;;;6.88;3.97;;;;;;;;;;5070502;28;20032;-44
2021/12/02 09:28:41;;;;;;;7.13;5.28;;;;;;;;;;5070676;28;20469;-43
2021/12/02 09:31:07;;;;;;;10.23;5.50;;;;;;;;;;5070432;28;20040;-39
2021/12/02 09:33:32;;;;;;;8.30;4.97;;;;;;;;;;5070904;28;20110;-41
2021/12/02 09:35:58;;;;;;;6.63;3.50;;;;;;;;;;5070839;28;20067;-43
2021/12/02 09:38:23;;;;;;;5.00;3.30;;;;;;;;;;5070526;28;20031;-41
2021/12/02 09:40:49;;;;;;;7.15;4.20;;;;;;;;;;5070754;28;20033;-42
2021/12/02 09:43:15;;;;;;;7.15;4.90;;;;;;;;;;5070383;28;20020;-39
2021/12/02 09:45:42;;;;;;;8.68;5.43;;;;;;;;;;5070563;28;20469;-39
2021/12/02 09:48:09;;;;;;;7.95;5.35;;;;;;;;;;5070355;28;20469;-42
2021/12/02 09:50:50;;;;;;;6.90;4.93;;;;;;;;;;5070338;28;20474;-45
2021/12/02 09:53:19;;;;;;;6.28;4.15;;;;;;;;;;5070285;28;20559;-44
2021/12/02 09:55:51;;;;;;;4.80;3.63;;;;;;;;;;5070444;28;20127;-42
2021/12/02 09:58:25;;;;;;;5.38;3.15;;;;;;;;;;5070287;28;20060;-41
2021/12/02 10:00:58;;;;;;;6.75;3.30;;;;;;;;;;5070705;28;20035;-46
2021/12/02 10:05:58;;;;;;;4.78;3.28;;;;;;;;;;5070675;28;20535;-41
2021/12/02 10:08:29;;;;;;;5.63;3.45;;;;;;;;;;5069925;28;20612;-46
2021/12/02 10:10:59;;;;;;;3.92;3.40;;;;;;;;;;5070309;28;20130;-42
2021/12/02 10:13:58;;;;;;;4.93;3.10;;;;;;;;;;5070111;28;20036;-38
2021/12/02 10:19:04;;;;;;;3.88;3.10;;;;;;;;;;5073971;28;20036;-39
2021/12/02 10:21:40;;;;;;;4.28;3.30;;;;;;;;;;5073855;28;20032;-38
2021/12/02 10:24:17;;;;;;;4.30;3.17;;;;;;;;;;5074149;28;20054;-42
2021/12/02 10:26:50;;;;;;;5.00;3.05;;;;;;;;;;5073771;28;20020;-38
2021/12/02 10:29:25;;;;;;;5.85;2.85;;;;;;;;;;5073704;28;20389;-44
2021/12/02 10:32:13;;;;;;;4.53;3.22;;;;;;;;;;5071500;28;20086;-39
2021/12/02 10:34:53;;;;;;;5.97;3.03;;;;;;;;;;5073986;28;20036;-38
2021/12/02 10:37:21;;;;;;;5.97;3.40;;;;;;;;;;5073927;28;20052;-42
2021/12/02 10:40:10;;;;;;;6.40;3.38;;;;;;;;;;5073469;28;20692;-40
2021/12/02 10:42:38;;;;;;;7.95;3.53;;;;;;;;;;5073750;28;20039;-38
2021/12/02 10:45:07;;;;;;;6.13;3.40;;;;;;;;;;5073816;28;20089;-38
2021/12/02 10:47:34;;;;;;;5.85;3.30;;;;;;;;;;5073356;28;20385;-38
2021/12/02 10:50:08;;;;;;;3.90;3.13;;;;;;;;;;5073622;28;20020;-42
2021/12/02 10:52:34;;;;;;;6.00;3.33;;;;;;;;;;5073605;28;20048;-38
2021/12/02 10:55:07;;;;;;;5.20;3.42;;;;;;;;;;5073338;28;20036;-39
2021/12/02 10:57:35;;;;;;;12.38;5.38;;;;;;;;;;5073171;28;20115;-39
2021/12/02 11:00:09;;;;;;;4.95;3.38;;;;;;;;;;5073477;28;20041;-39
2021/12/02 11:02:40;;;;;;;5.13;3.05;;;;;;;;;;5073409;28;20032;-38
2021/12/02 11:05:21;;;;;;;3.67;3.28;;;;;;;;;;5073297;28;20094;-42
2021/12/02 11:08:05;;;;;;;5.15;3.47;;;;;;;;;;5073067;28;20048;-41
2021/12/02 11:10:46;;;;;;;5.15;3.70;;;;;;;;;;5073201;28;20124;-40
2021/12/02 11:13:21;;;;;;;5.88;3.78;;;;;;;;;;5073039;28;20020;-39
2021/12/02 11:15:47;;;;;;;9.65;3.92;;;;;;;;;;5073148;28;20425;-41
2021/12/02 11:18:16;;;;;;;6.63;3.92;;;;;;;;;;5072744;28;20030;-44
2021/12/02 11:20:42;;;;;;;7.13;4.15;;;;;;;;;;5072783;28;20033;-44
2021/12/02 11:23:15;;;;;;;6.32;4.10;;;;;;;;;;5073141;28;20021;-40
2021/12/02 11:25:49;;;;;;;7.95;4.20;;;;;;;;;;5072985;28;20043;-45
2021/12/02 11:28:15;;;;;;;5.82;4.05;;;;;;;;;;5072059;28;20037;-42
2021/12/02 11:30:40;;;;;;;7.82;4.28;;;;;;;;;;5072098;28;20033;-44
2021/12/02 11:33:08;;;;;;;6.70;4.28;;;;;;;;;;5072559;28;20028;-43
2021/12/02 11:35:43;;;;;;;8.30;3.80;;;;;;;;;;5072666;28;20021;-38
2021/12/02 11:38:17;;;;;;;6.07;3.30;;;;;;;;;;5072567;28;20028;-39
2021/12/02 11:40:51;;;;;;;6.18;3.13;;;;;;;;;;5072568;28;20428;-38
2021/12/02 11:43:20;;;;;;;6.10;3.53;;;;;;;;;;5072478;28;20039;-39
2021/12/02 11:45:49;;;;;;;9.43;4.40;;;;;;;;;;5072078;28;20490;-44
2021/12/02 11:48:21;;;;;;;5.95;3.78;;;;;;;;;;5072211;28;20025;-44
2021/12/02 11:50:49;;;;;;;7.15;3.78;;;;;;;;;;5072437;28;20089;-46
2021/12/02 11:53:20;;;;;;;7.88;4.00;;;;;;;;;;5071996;28;20043;-44
2021/12/02 11:55:46;;;;;;;5.53;3.63;;;;;;;;;;5072164;28;20071;-41
2021/12/02 11:58:11;;;;;;;5.45;3.75;;;;;;;;;;5071888;28;20059;-40
2021/12/02 12:00:37;;;;;;;6.53;3.40;;;;;;;;;;5071394;28;20542;-38
2021/12/02 12:03:12;;;;;;;5.63;3.30;;;;;;;;;;5072165;28;20742;-37
2021/12/02 12:05:41;;;;;;;7.03;3.45;;;;;;;;;;5072389;28;20134;-38
2021/12/02 12:08:08;;;;;;;6.63;3.40;;;;;;;;;;5071650;28;20129;-40
2021/12/02 12:10:36;;;;;;;6.70;4.20;;;;;;;;;;5071978;28;20265;-43
2021/12/02 12:13:22;;;;;;;8.40;3.80;;;;;;;;;;5071929;28;20024;-39
2021/12/02 12:15:58;;;;;;;5.78;4.05;;;;;;;;;;5071760;28;20385;-39
2021/12/02 12:18:26;;;;;;;6.55;3.90;;;;;;;;;;5071491;28;20025;-40
2021/12/02 12:21:11;;;;;;;7.82;4.55;;;;;;;;;;5071029;28;20516;-46
2021/12/02 12:23:41;;;;;;;7.85;5.03;;;;;;;;;;5071699;28;20028;-39
2021/12/02 12:26:32;;;;;;;9.02;5.50;;;;;;;;;;5071518;28;20104;-38
2021/12/02 12:29:08;;;;;;;8.77;5.80;;;;;;;;;;5071664;28;20044;-40
2021/12/02 12:34:39;;;;;;;13.50;6.20;;;;;;;;;;5060289;28;20051;-40
2021/12/02 12:37:24;;;;;;;11.30;6.05;;;;;;;;;;5071135;28;20549;-41
2021/12/02 12:40:11;;;;;;;12.15;6.82;;;;;;;;;;5070815;28;20512;-40
2021/12/02 12:42:39;;;;;;;10.20;6.07;;;;;;;;;;5071420;28;20039;-41
2021/12/02 12:45:07;;;;;;;7.32;5.00;;;;;;;;;;5071309;28;20032;-40
2021/12/02 12:47:49;;;;;;;8.68;5.88;;;;;;;;;;5070941;28;20503;-40
2021/12/02 12:50:40;;;;;;;10.38;6.40;;;;;;;;;;5071239;28;20036;-41
2021/12/02 12:53:06;;;;;;;10.02;6.53;;;;;;;;;;5071266;28;20056;-44
2021/12/02 12:55:35;;;;;;;10.68;6.40;;;;;;;;;;5071138;28;20457;-39
2021/12/02 12:58:18;;;;;;;13.52;6.70;;;;;;;;;;5071095;28;20036;-40
2021/12/02 13:00:46;;;;;;;11.32;6.65;;;;;;;;;;5071328;28;20021;-43
2021/12/02 13:03:23;;;;;;;11.15;6.85;;;;;;;;;;5071030;28;20029;-40
2021/12/02 13:05:59;;;;;;;7.72;5.88;;;;;;;;;;5071191;28;20032;-43
2021/12/02 13:08:33;;;;;;;11.65;6.07;;;;;;;;;;5070592;28;20041;-41
2021/12/02 13:11:01;;;;;;;9.40;5.85;;;;;;;;;;5070957;28;20024;-45
2021/12/02 13:13:33;;;;;;;9.15;5.40;;;;;;;;;;5070720;28;20020;-44
2021/12/02 13:16:19;;;;;;;8.85;5.43;;;;;;;;;;5071135;28;20028;-43
2021/12/02 13:18:59;;;;;;;12.10;6.38;;;;;;;;;;5070613;28;20060;-42
2021/12/02 13:21:31;;;;;;;20.13;7.93;;;;;;;;;;5070658;28;20491;-39
2021/12/02 13:24:05;;;;;;;15.45;8.00;;;;;;;;;;5070669;28;20037;-46
2021/12/02 13:26:35;;;;;;;18.10;9.27;;;;;;;;;;5070778;28;20039;-40
2021/12/02 13:29:12;;;;;;;17.88;9.98;;;;;;;;;;5071025;28;20036;-43
2021/12/02 13:31:40;;;;;;;18.20;9.38;;;;;;;;;;5070539;28;20063;-39
2021/12/02 13:34:11;;;;;;;16.05;7.95;;;;;;;;;;5070908;28;20028;-41
2021/12/02 13:36:41;;;;;;;17.10;9.32;;;;;;;;;;5070820;28;20074;-44
2021/12/02 13:39:16;;;;;;;16.42;8.43;;;;;;;;;;5070610;28;20081;-38
2021/12/02 13:41:47;;;;;;;15.88;10.18;;;;;;;;;;5070636;28;20033;-38
2021/12/02 13:44:20;;;;;;;14.57;9.55;;;;;;;;;;5070935;28;20035;-39
2021/12/02 13:46:57;;;;;;;16.40;9.95;;;;;;;;;;5070450;28;20078;-39
2021/12/02 13:49:36;;;;;;;16.77;9.30;;;;;;;;;;5070557;28;20032;-43
2021/12/02 13:52:29;;;;;;;15.45;8.77;;;;;;;;;;5071526;28;20124;-46
2021/12/02 13:55:02;;;;;;;12.85;7.68;;;;;;;;;;5074713;28;20031;-39
2021/12/02 13:57:45;;;;;;;12.57;6.68;;;;;;;;;;5074673;28;20028;-39
2021/12/02 14:00:20;;;;;;;12.52;7.38;;;;;;;;;;5074338;28;20047;-44
2021/12/02 14:03:05;;;;;;;12.10;8.02;;;;;;;;;;5074467;28;20043;-42
2021/12/02 14:05:34;;;;;;;10.57;6.60;;;;;;;;;;5074633;28;20103;-38
2021/12/02 14:08:02;;;;;;;13.02;7.97;;;;;;;;;;5073943;28;20121;-39
2021/12/02 14:10:30;;;;;;;14.55;7.20;;;;;;;;;;5074359;28;20041;-39
2021/12/02 14:13:03;;;;;;;14.75;8.23;;;;;;;;;;5074362;28;20067;-40
2021/12/02 14:15:35;;;;;;;16.77;7.60;;;;;;;;;;5074045;28;20499;-41
2021/12/02 14:18:05;;;;;;;16.95;8.75;;;;;;;;;;5074320;28;20111;-39
2021/12/02 14:20:41;;;;;;;17.25;8.60;;;;;;;;;;5073991;28;20021;-43
2021/12/02 14:23:36;;;;;;;12.68;7.80;;;;;;;;;;5074106;28;20036;-44
2021/12/02 14:26:03;;;;;;;13.20;8.45;;;;;;;;;;5064521;28;20070;-39
2021/12/02 14:28:42;;;;;;;13.82;7.20;;;;;;;;;;5056214;28;20132;-43
2021/12/02 14:31:20;;;;;;;11.98;6.68;;;;;;;;;;5073912;28;20612;-45
2021/12/02 14:33:46;;;;;;;12.75;7.80;;;;;;;;;;5074111;28;20060;-39
2021/12/02 14:36:16;;;;;;;13.38;8.50;;;;;;;;;;5073605;28;20710;-38
2021/12/02 14:38:46;;;;;;;;;;;;;;;;;;5074112;28;20111;-41
2021/12/02 14:41:19;;;;;;;13.48;8.40;;;;;;;;;;5073839;28;19995;-39
2021/12/02 14:43:52;;;;;;;17.27;10.25;;;;;;;;;;5073886;28;20040;-43
2021/12/02 14:46:22;;;;;;;14.98;9.68;;;;;;;;;;5073399;28;20067;-40
2021/12/02 14:49:11;;;;;;;18.85;11.85;;;;;;;;;;5073803;28;20064;-41
2021/12/02 14:52:01;;;;;;;21.10;11.98;;;;;;;;;;5073138;28;20067;-46
2021/12/02 14:54:35;;;;;;;17.20;10.77;;;;;;;;;;5072720;28;20024;-43
2021/12/02 14:57:23;;;;;;;12.05;7.80;;;;;;;;;;5073317;28;20033;-45
2021/12/02 15:00:04;;;;;;;11.68;7.35;;;;;;;;;;5072619;28;20044;-46
2021/12/02 15:02:43;;;;;;;10.93;6.00;;;;;;;;;;5072739;28;20520;-38
2021/12/02 15:05:19;;;;;;;9.95;5.53;;;;;;;;;;5073120;28;20177;-46
2021/12/02 15:07:50;;;;;;;17.85;3.88;;;;;;;;;;5072690;28;20080;-38
2021/12/02 15:10:18;;;;;;;10.05;7.38;;;;;;;;;;5073268;28;20052;-38
2021/12/02 15:12:44;;;;;;;17.58;11.70;;;;;;;;;;5072837;28;20036;-38
2021/12/02 15:15:11;;;;;;;14.68;9.55;;;;;;;;;;5073244;28;20024;-38
2021/12/02 15:17:52;;;;;;;12.02;7.78;;;;;;;;;;5073113;28;20040;-40